createdAt,value
2022-11-07T00:00:14.019Z,2.85
2022-11-07T00:05:15.620Z,2.13
2022-11-07T00:10:17.281Z,2.22
2022-11-07T00:15:18.824Z,2.38
2022-11-07T00:20:20.408Z,3.80
2022-11-07T00:25:21.932Z,3.88
2022-11-07T00:30:23.545Z,4.25
2022-11-07T00:35:25.220Z,2.13
2022-11-07T00:40:26.727Z,3.47
2022-11-07T00:45:28.380Z,2.70
2022-11-07T00:50:29.873Z,3.05
2022-11-07T00:55:32.475Z,2.00
2022-11-07T01:00:34.041Z,3.22
2022-11-07T01:05:35.743Z,2.55
2022-11-07T01:10:41.750Z,2.72
2022-11-07T01:15:43.282Z,1.47
2022-11-07T01:20:44.844Z,2.35
2022-11-07T01:25:46.389Z,2.38
2022-11-07T01:30:47.934Z,1.40
2022-11-07T01:35:49.733Z,3.10
2022-11-07T01:40:51.299Z,1.08
2022-11-07T01:45:53.082Z,3.83
2022-11-07T01:50:54.690Z,2.05
2022-11-07T01:55:56.324Z,3.38
2022-11-07T02:00:58.194Z,1.92
2022-11-07T02:06:05.503Z,2.53
2022-11-07T02:11:07.391Z,2.05
2022-11-07T02:16:09.037Z,2.25
2022-11-07T02:21:27.382Z,2.53
2022-11-07T02:26:29.362Z,1.45
2022-11-07T02:31:30.905Z,6.82
2022-11-07T02:36:33.295Z,1.85
2022-11-07T02:41:35.078Z,6.65
2022-11-07T02:46:37.222Z,6.68
2022-11-07T02:51:38.995Z,4.60
2022-11-07T02:56:40.649Z,3.22
2022-11-07T03:01:42.255Z,4.72
2022-11-07T03:06:43.887Z,3.42
2022-11-07T03:11:45.427Z,3.97
2022-11-07T03:16:46.925Z,4.68
2022-11-07T03:21:50.372Z,3.75
2022-11-07T03:26:51.923Z,3.60
2022-11-07T03:31:54.283Z,8.52
2022-11-07T03:36:55.867Z,6.30
2022-11-07T03:41:57.471Z,3.97
2022-11-07T03:46:58.989Z,6.53
2022-11-07T03:52:00.608Z,3.65
2022-11-07T03:57:02.189Z,6.30
2022-11-07T04:02:03.879Z,6.85
2022-11-07T04:07:05.639Z,5.93
2022-11-07T04:12:07.585Z,5.90
2022-11-07T04:17:11.310Z,6.47
2022-11-07T04:22:12.888Z,7.05
2022-11-07T04:27:15.780Z,3.85
2022-11-07T04:32:17.322Z,5.22
2022-11-07T04:37:19.398Z,5.78
2022-11-07T04:42:21.148Z,9.32
2022-11-07T04:47:22.721Z,5.38
2022-11-07T04:52:24.430Z,6.13
2022-11-07T04:57:26.002Z,4.60
2022-11-07T05:02:27.746Z,10.30
2022-11-07T05:07:29.427Z,7.57
2022-11-07T05:12:30.935Z,10.68
2022-11-07T05:17:32.572Z,4.13
2022-11-07T05:22:34.066Z,7.78
2022-11-07T05:27:35.587Z,12.77
2022-11-07T05:32:37.172Z,8.55
2022-11-07T05:37:38.721Z,4.30
2022-11-07T05:42:40.654Z,6.90
2022-11-07T05:47:42.150Z,6.90
2022-11-07T05:52:43.719Z,7.13
2022-11-07T05:57:46.019Z,5.70
2022-11-07T06:02:58.443Z,9.23
2022-11-07T06:08:00.136Z,5.03
2022-11-07T06:13:03.522Z,4.82
2022-11-07T06:18:07.548Z,5.57
2022-11-07T06:23:09.768Z,9.63
2022-11-07T06:28:12.578Z,6.97
2022-11-07T06:33:16.975Z,5.13
2022-11-07T06:38:18.848Z,8.13
2022-11-07T06:43:20.924Z,7.70
2022-11-07T06:48:22.601Z,11.25
2022-11-07T06:53:24.167Z,5.30
2022-11-07T06:58:25.745Z,6.50
2022-11-07T07:03:27.315Z,3.08
2022-11-07T07:08:29.158Z,4.32
2022-11-07T07:13:30.742Z,12.32
2022-11-07T07:18:32.634Z,6.05
2022-11-07T07:23:35.405Z,11.55
2022-11-07T07:28:37.029Z,4.10
2022-11-07T07:33:38.747Z,6.68
2022-11-07T07:38:40.659Z,5.88
2022-11-07T07:43:42.385Z,7.32
2022-11-07T07:48:43.961Z,4.78
2022-11-07T07:53:45.541Z,8.05
2022-11-07T07:58:47.443Z,7.20
2022-11-07T08:04:01.321Z,4.20
2022-11-07T08:09:05.007Z,8.27
2022-11-07T08:14:06.591Z,3.53
2022-11-07T08:19:08.333Z,5.82
2022-11-07T08:24:09.938Z,5.78
2022-11-07T08:29:11.540Z,7.85
2022-11-07T08:34:13.471Z,7.30
2022-11-07T08:39:15.016Z,6.35
2022-11-07T08:44:16.485Z,9.23
2022-11-07T08:49:18.086Z,3.92
2022-11-07T08:54:19.617Z,4.68
2022-11-07T08:59:21.443Z,3.60
2022-11-07T09:04:23.095Z,4.75
2022-11-07T09:09:25.086Z,2.58
2022-11-07T09:14:26.623Z,3.67
2022-11-07T09:19:28.224Z,3.45
2022-11-07T09:24:29.865Z,3.78
2022-11-07T09:29:31.507Z,5.88
2022-11-07T09:34:33.046Z,4.00
2022-11-07T09:39:34.551Z,1.88
2022-11-07T09:44:54.090Z,5.25
2022-11-07T09:50:03.904Z,4.70
2022-11-07T09:55:20.673Z,2.30
2022-11-07T10:05:36.527Z,5.25
2022-11-07T10:10:55.484Z,6.75
2022-11-07T10:16:13.308Z,5.38
2022-11-07T10:21:37.096Z,5.05
2022-11-07T10:26:37.178Z,3.30
2022-11-07T10:31:43.656Z,5.25
2022-11-07T10:36:45.269Z,2.67
2022-11-07T10:41:59.022Z,4.65
2022-11-07T10:47:00.687Z,2.67
2022-11-07T10:52:14.491Z,4.05
2022-11-07T10:57:18.927Z,2.80
2022-11-07T11:02:23.493Z,1.70
2022-11-07T11:07:32.729Z,2.28
2022-11-07T11:12:34.876Z,2.58
2022-11-07T11:17:36.572Z,1.38
2022-11-07T11:22:41.627Z,1.23
2022-11-07T11:27:47.999Z,1.85
2022-11-07T11:33:03.997Z,1.02
2022-11-07T11:38:11.750Z,1.63
2022-11-07T11:43:22.625Z,0.88
2022-11-07T11:48:29.513Z,2.08
2022-11-07T11:53:31.125Z,0.73
2022-11-07T11:58:32.527Z,2.95
2022-11-07T12:04:05.397Z,1.83
2022-11-07T12:09:27.677Z,3.15
2022-11-07T12:14:43.104Z,2.83
2022-11-07T12:20:13.919Z,1.80
2022-11-07T12:25:29.831Z,1.45
2022-11-07T12:30:53.013Z,2.00
2022-11-07T12:36:02.184Z,0.60
2022-11-07T12:41:11.788Z,0.82
2022-11-07T12:46:25.290Z,1.10
2022-11-07T12:52:02.345Z,0.63
2022-11-07T13:02:49.950Z,1.00
2022-11-07T13:08:04.343Z,0.52
2022-11-07T13:13:14.853Z,0.80
2022-11-07T13:18:27.511Z,1.33
2022-11-07T13:23:29.656Z,1.05
2022-11-07T13:28:36.999Z,2.03
2022-11-07T13:33:38.630Z,2.47
2022-11-07T13:38:51.540Z,1.88
2022-11-07T13:43:57.721Z,1.02
2022-11-07T13:49:20.693Z,1.75
2022-11-07T13:54:37.416Z,2.50
2022-11-07T13:59:52.239Z,0.98
2022-11-07T14:05:15.158Z,3.00
2022-11-07T14:10:31.697Z,2.08
2022-11-07T14:15:34.616Z,1.53
2022-11-07T14:20:36.212Z,1.52
2022-11-07T14:25:37.771Z,4.20
2022-11-07T14:30:41.923Z,1.65
2022-11-07T14:35:48.794Z,3.70
2022-11-07T14:40:54.982Z,3.17
2022-11-07T14:46:12.379Z,1.55
2022-11-07T14:51:18.752Z,2.70
2022-11-07T14:56:25.784Z,1.80
2022-11-07T15:01:33.022Z,2.13
2022-11-07T15:06:43.432Z,3.97
2022-11-07T15:11:59.812Z,3.08
2022-11-07T15:17:02.892Z,12.93
2022-11-07T15:22:05.528Z,17.40
2022-11-07T15:27:13.313Z,5.07
2022-11-07T15:32:21.329Z,11.40
2022-11-07T15:37:25.497Z,20.00
2022-11-07T15:42:27.006Z,8.60
2022-11-07T15:47:28.683Z,3.47
2022-11-07T15:52:30.176Z,4.28
2022-11-07T15:57:33.373Z,2.35
2022-11-07T16:02:34.962Z,5.03
2022-11-07T16:07:36.895Z,2.35
2022-11-07T16:12:38.439Z,3.97
2022-11-07T16:17:40.189Z,2.60
2022-11-07T16:22:45.485Z,4.57
2022-11-07T16:27:58.524Z,2.83
2022-11-07T16:33:00.092Z,2.40
2022-11-07T16:38:01.702Z,4.80
2022-11-07T16:43:03.220Z,1.77
2022-11-07T16:48:05.786Z,4.90
2022-11-07T16:53:12.325Z,4.82
2022-11-07T16:58:21.312Z,4.57
2022-11-07T17:03:23.473Z,4.53
2022-11-07T17:08:30.884Z,4.00
2022-11-07T17:13:32.577Z,3.00
2022-11-07T17:18:34.225Z,6.20
2022-11-07T17:23:35.803Z,4.22
2022-11-07T17:28:37.392Z,3.33
2022-11-07T17:33:38.918Z,7.43
2022-11-07T17:38:40.446Z,3.40
2022-11-07T17:43:42.015Z,6.95
2022-11-07T17:48:47.276Z,3.63
2022-11-07T17:53:49.356Z,3.83
2022-11-07T17:58:54.692Z,5.43
2022-11-07T18:03:56.414Z,3.25
2022-11-07T18:08:58.799Z,3.40
2022-11-07T18:14:01.429Z,4.97
2022-11-07T18:19:04.098Z,4.85
2022-11-07T18:24:06.184Z,3.83
2022-11-07T18:29:10.719Z,7.88
2022-11-07T18:34:13.533Z,7.13
2022-11-07T18:39:18.162Z,18.85
2022-11-07T18:44:20.016Z,11.05
2022-11-07T18:49:21.533Z,7.65
2022-11-07T18:54:23.214Z,37.25
2022-11-07T18:59:24.758Z,32.03
2022-11-07T19:04:26.422Z,11.30
2022-11-07T19:09:31.152Z,7.22
2022-11-07T19:14:33.420Z,10.63
2022-11-07T19:19:35.176Z,9.35
2022-11-07T19:24:36.855Z,11.23
2022-11-07T19:29:38.565Z,6.90
2022-11-07T19:34:40.241Z,8.00
2022-11-07T19:39:43.055Z,9.02
2022-11-07T19:44:50.480Z,6.20
2022-11-07T19:49:53.470Z,4.32
2022-11-07T19:54:55.350Z,8.95
2022-11-07T19:59:56.973Z,8.30
2022-11-07T20:04:58.509Z,6.53
2022-11-07T20:10:00.245Z,8.85
2022-11-07T20:15:01.917Z,5.25
2022-11-07T20:20:08.329Z,9.38
2022-11-07T20:25:12.465Z,8.85
2022-11-07T20:30:14.476Z,8.10
2022-11-07T20:35:16.044Z,6.32
2022-11-07T20:40:17.707Z,10.15
2022-11-07T20:45:19.258Z,12.75
2022-11-07T20:50:20.762Z,13.25
2022-11-07T20:55:22.456Z,8.45
2022-11-07T21:00:24.311Z,8.93
2022-11-07T21:05:26.089Z,13.80
2022-11-07T21:10:27.717Z,10.73
2022-11-07T21:15:29.352Z,6.57
2022-11-07T21:20:31.057Z,11.48
2022-11-07T21:25:39.959Z,8.63
2022-11-07T21:30:41.542Z,10.27
2022-11-07T21:35:43.114Z,10.30
2022-11-07T21:40:44.774Z,11.77
2022-11-07T21:45:46.563Z,8.82
2022-11-07T21:50:48.136Z,10.15
2022-11-07T21:55:49.698Z,11.07
2022-11-07T22:00:51.307Z,12.82
2022-11-07T22:05:52.861Z,7.55
2022-11-07T22:10:54.523Z,13.75
2022-11-07T22:16:08.232Z,10.95
2022-11-07T22:21:12.377Z,11.35
2022-11-07T22:26:15.546Z,12.35
2022-11-07T22:31:20.178Z,7.60
2022-11-07T22:36:21.863Z,14.43
2022-11-07T22:41:25.668Z,11.05
2022-11-07T22:46:30.592Z,10.20
2022-11-07T22:51:34.602Z,12.45
2022-11-07T22:56:37.207Z,12.20
2022-11-07T23:01:41.337Z,9.68
2022-11-07T23:06:43.036Z,10.23
2022-11-07T23:11:46.489Z,8.18
2022-11-07T23:16:53.830Z,9.05
2022-11-07T23:21:55.997Z,7.93
2022-11-07T23:26:57.511Z,7.72
2022-11-07T23:31:59.059Z,13.30
2022-11-07T23:37:00.732Z,9.95
2022-11-07T23:42:02.291Z,6.38
2022-11-07T23:47:03.914Z,6.90
2022-11-07T23:52:05.633Z,5.47
2022-11-07T23:57:07.159Z,19.02
